This is the latest recevied weather packets stored in our database for station/object PD2BVG. If no packets are shown the sender has not sent any weather packets the latest 10 day(s).
| Time | Temp. | Humidity | Pressure | Rain* | Wind** | Luminosity | Snow |
|---|---|---|---|---|---|---|---|
| 1777547752 | 18.33° C | 28% | 1025.7 hPa | 0 mm | - | 809 W/m² | - |
| 1777547692 | 18.33° C | 30% | 1025.7 hPa | 0 mm | - | 809 W/m² | - |
| 1777547633 | 18.33° C | 31% | 1025.7 hPa | 0 mm | - | 809 W/m² | - |
| 1777547574 | 17.78° C | 30% | 1025.7 hPa | 0 mm | - | 811 W/m² | - |
| 1777547513 | 17.78° C | 30% | 1025.7 hPa | 0 mm | - | 809 W/m² | - |
| 1777547453 | 17.78° C | 29% | 1025.9 hPa | 0 mm | - | 809 W/m² | - |
| 1777547392 | 17.78° C | 29% | 1025.8 hPa | 0 mm | - | 809 W/m² | - |
| 1777547333 | 17.78° C | 29% | 1025.8 hPa | 0 mm | - | 809 W/m² | - |
| 1777547274 | 17.78° C | 29% | 1025.9 hPa | 0 mm | - | 809 W/m² | - |
| 1777547213 | 17.78° C | 29% | 1025.9 hPa | 0 mm | - | 811 W/m² | - |
| 1777547153 | 17.78° C | 30% | 1026 hPa | 0 mm | - | 807 W/m² | - |
| 1777547093 | 17.78° C | 30% | 1025.9 hPa | 0 mm | - | 630 W/m² | - |
| 1777547033 | 17.78° C | 31% | 1025.9 hPa | 0 mm | - | 714 W/m² | - |
| 1777546972 | 17.78° C | 29% | 1025.8 hPa | 0 mm | - | 651 W/m² | - |
| 1777546912 | 17.78° C | 30% | 1025.8 hPa | 0 mm | - | 686 W/m² | - |
| 1777546852 | 17.78° C | 30% | 1026 hPa | 0 mm | - | 807 W/m² | - |
| 1777546791 | 17.78° C | 30% | 1026 hPa | 0 mm | - | 804 W/m² | - |
| 1777546729 | 17.78° C | 30% | 1026 hPa | 0 mm | - | 807 W/m² | - |
| 1777546666 | 17.78° C | 30% | 1026 hPa | 0 mm | - | 804 W/m² | - |
| 1777546603 | 17.78° C | 31% | 1026 hPa | 0 mm | - | 802 W/m² | - |
| 1777546542 | 17.78° C | 30% | 1025.9 hPa | 0 mm | - | 784 W/m² | - |
| 1777546483 | 17.78° C | 30% | 1026 hPa | 0 mm | - | 786 W/m² | - |
| 1777546422 | 17.78° C | 31% | 1026 hPa | 0 mm | - | 797 W/m² | - |
| 1777546359 | 17.78° C | 30% | 1025.9 hPa | 0 mm | - | 797 W/m² | - |
| 1777546296 | 17.78° C | 32% | 1026 hPa | 0 mm | - | 802 W/m² | - |
* Rain latest hour (hover to see other rain measurements)
** Current wind speed in m/s (hover to see current wind gust speed)